Time;durP1;ratioP1;P1;durP2;ratioP2;P2;SDS_P1;SDS_P2;PMS_P1;PMS_P2;Temp;Humidity;BMP_temperature;BMP_pressure;BME280_temperature;BME280_humidity;BME280_pressure;Samples;Min_cycle;Max_cycle;Signal;HPM_P1;HPM_P2
2023/05/31 00:02:20;;;;;;;;;15.00;12.25;;;;;17.48;55.84;101386.66;5070964;28;47367;-79
2023/05/31 00:04:45;;;;;;;;;17.75;15.75;;;;;17.43;56.44;101391.50;5072932;27;45715;-80
2023/05/31 00:07:11;;;;;;;;;17.75;16.25;;;;;17.38;56.20;101388.41;5072448;27;45614;-79
2023/05/31 00:09:36;;;;;;;;;19.50;15.25;;;;;17.32;55.98;101379.19;5070729;28;46175;-80
2023/05/31 00:12:02;;;;;;;;;17.00;14.50;;;;;17.26;57.12;101392.13;5072680;28;45819;-79
2023/05/31 00:14:27;;;;;;;;;15.75;13.25;;;;;17.25;56.98;101393.94;5072492;27;45674;-81
2023/05/31 00:16:53;;;;;;;;;15.25;13.25;;;;;17.22;56.70;101388.06;5072697;27;45595;-80
2023/05/31 00:19:19;;;;;;;;;18.25;14.25;;;;;17.16;56.88;101384.16;5072969;27;45558;-80
2023/05/31 00:21:45;;;;;;;;;15.50;14.50;;;;;17.18;56.89;101396.28;5071018;28;46270;-80
2023/05/31 00:24:12;;;;;;;;;17.00;16.00;;;;;17.17;57.36;101391.09;5072409;28;45773;-80
2023/05/31 00:29:59;;;;;;;;;17.00;15.50;;;;;17.05;56.82;101385.06;5072021;28;46083;-78
2023/05/31 00:32:25;;;;;;;;;17.00;14.25;;;;;17.02;57.87;101390.63;5071750;27;46236;-80
2023/05/31 00:34:50;;;;;;;;;15.25;13.75;;;;;16.96;57.32;101380.53;5072518;28;45639;-79
2023/05/31 00:37:16;;;;;;;;;18.50;16.75;;;;;16.93;57.67;101380.81;5072248;27;45833;-79
2023/05/31 00:39:41;;;;;;;;;20.75;16.75;;;;;16.91;57.83;101392.50;5071690;28;46684;-80
2023/05/31 00:45:28;;;;;;;;;17.75;15.75;;;;;16.85;57.40;101388.56;5071770;28;45924;-80
2023/05/31 00:47:55;;;;;;;;;19.25;18.50;;;;;16.85;58.14;101380.63;5073162;27;45532;-81
2023/05/31 00:50:21;;;;;;;;;17.00;17.00;;;;;16.83;58.23;101381.72;5073895;28;48518;-79
2023/05/31 00:52:49;;;;;;;;;17.00;15.50;;;;;16.80;58.27;101372.22;5076835;28;45616;-80
2023/05/31 00:55:16;;;;;;;;;20.25;18.00;;;;;16.73;58.41;101377.19;5077935;27;45715;-79
2023/05/31 00:57:41;;;;;;;;;16.50;15.25;;;;;16.68;59.00;101368.81;5075339;27;45535;-79
2023/05/31 01:00:08;;;;;;;;;17.75;16.00;;;;;16.69;58.65;101367.84;5072751;27;46441;-79
2023/05/31 01:02:38;;;;;;;;;19.50;17.75;;;;;16.67;58.25;101369.81;5072362;27;45916;-80
2023/05/31 01:05:07;;;;;;;;;19.75;16.00;;;;;16.65;57.70;101361.16;5071958;27;45574;-80
2023/05/31 01:07:33;;;;;;;;;20.75;18.25;;;;;16.64;58.67;101367.41;5072580;27;45785;-79
2023/05/31 01:09:59;;;;;;;;;14.50;14.25;;;;;16.64;59.13;101364.75;5075138;27;46385;-80
2023/05/31 01:16:00;;;;;;;;;17.75;16.00;;;;;16.50;59.22;101349.19;5075001;28;45792;-80
2023/05/31 01:18:32;;;;;;;;;19.50;17.50;;;;;16.49;59.27;101359.88;5074784;27;45898;-79
2023/05/31 01:21:01;;;;;;;;;21.25;17.75;;;;;16.48;59.24;101366.97;5074713;27;45684;-79
2023/05/31 01:24:00;;;;;;;;;20.00;18.00;;;;;16.43;59.36;101357.75;5075230;27;46471;-80
2023/05/31 01:26:44;;;;;;;;;18.75;17.25;;;;;16.38;59.22;101355.50;5074465;27;45604;-80
2023/05/31 01:29:14;;;;;;;;;19.00;17.50;;;;;16.35;59.71;101366.34;5075612;27;45571;-80
2023/05/31 01:31:41;;;;;;;;;17.00;15.25;;;;;16.31;59.37;101349.88;5076623;28;45818;-82
2023/05/31 01:34:07;;;;;;;;;21.75;18.75;;;;;16.29;59.54;101348.34;5074818;27;46221;-81
2023/05/31 01:36:33;;;;;;;;;20.75;18.75;;;;;16.28;59.48;101341.34;5074744;27;45763;-79
2023/05/31 01:39:00;;;;;;;;;17.75;15.75;;;;;16.25;59.68;101337.16;5072968;27;45940;-81
2023/05/31 01:41:28;;;;;;;;;19.25;16.50;;;;;16.24;59.55;101340.78;5074637;28;45654;-80
2023/05/31 01:43:54;;;;;;;;;20.00;18.00;;;;;16.22;59.80;101349.78;5074343;27;46070;-80
2023/05/31 01:46:20;;;;;;;;;14.75;12.25;;;;;16.22;60.04;101340.06;5073901;27;45830;-81
2023/05/31 01:48:46;;;;;;;;;16.25;15.25;;;;;16.17;59.84;101333.47;5074960;27;45961;-80
2023/05/31 01:51:14;;;;;;;;;19.25;16.50;;;;;16.15;59.76;101332.75;5074832;28;46318;-79
2023/05/31 01:53:40;;;;;;;;;17.00;14.50;;;;;16.13;59.48;101337.34;5074224;27;47122;-80
2023/05/31 01:56:07;;;;;;;;;18.50;17.00;;;;;16.12;59.81;101344.44;5089707;27;45863;-79
2023/05/31 01:58:36;;;;;;;;;23.25;19.00;;;;;16.09;59.83;101330.63;5074282;27;45741;-79
2023/05/31 02:01:01;;;;;;;;;22.00;16.00;;;;;16.11;59.96;101339.28;5073911;27;46685;-80
2023/05/31 02:03:27;;;;;;;;;20.00;13.75;;;;;16.06;59.66;101339.66;5074755;28;46246;-80
2023/05/31 02:06:00;;;;;;;;;19.25;17.75;;;;;16.08;59.59;101344.81;5074343;28;45904;-79
2023/05/31 02:08:26;;;;;;;;;21.00;18.25;;;;;16.10;59.73;101340.22;5073356;28;45785;-80
2023/05/31 02:10:53;;;;;;;;;20.75;17.25;;;;;16.10;59.67;101335.78;5074348;27;46653;-80
2023/05/31 02:13:20;;;;;;;;;20.25;16.75;;;;;16.09;59.77;101333.25;5072872;28;47506;-79
2023/05/31 02:15:45;;;;;;;;;20.50;17.75;;;;;16.08;59.59;101332.44;5073793;27;45870;-79
2023/05/31 02:18:12;;;;;;;;;22.00;16.00;;;;;16.01;60.08;101333.91;5073571;27;45718;-80
2023/05/31 02:20:37;;;;;;;;;20.25;17.25;;;;;15.98;59.87;101328.84;5073592;27;45665;-80
2023/05/31 02:23:03;;;;;;;;;22.50;20.00;;;;;15.97;60.10;101326.38;5073626;27;46149;-81
2023/05/31 02:25:28;;;;;;;;;22.50;17.00;;;;;15.92;59.94;101322.25;5073295;28;45654;-81
2023/05/31 02:31:15;;;;;;;;;19.25;18.00;;;;;15.92;59.89;101316.97;5073773;28;46521;-80
2023/05/31 02:33:44;;;;;;;;;21.25;18.75;;;;;15.93;60.03;101313.38;5074205;28;46286;-80
2023/05/31 02:36:11;;;;;;;;;21.25;17.75;;;;;15.91;60.10;101312.69;5072812;27;45838;-81
2023/05/31 02:38:36;;;;;;;;;18.25;17.75;;;;;15.93;60.58;101323.94;5073659;27;45760;-82
2023/05/31 02:41:02;;;;;;;;;22.75;21.00;;;;;15.95;60.53;101313.25;5073943;28;46370;-81
2023/05/31 02:43:27;;;;;;;;;25.25;18.25;;;;;15.93;60.22;101329.22;5072168;28;47823;-80
2023/05/31 02:45:52;;;;;;;;;20.25;16.50;;;;;15.91;60.38;101322.41;5072990;28;45772;-80
2023/05/31 02:48:18;;;;;;;;;19.75;18.50;;;;;15.89;60.46;101321.69;5073470;27;45743;-81
2023/05/31 02:50:43;;;;;;;;;24.00;20.25;;;;;15.87;60.45;101318.34;5073892;28;45713;-80
2023/05/31 02:53:08;;;;;;;;;17.50;15.75;;;;;15.84;60.38;101324.72;5073190;28;45629;-80
2023/05/31 02:55:34;;;;;;;;;24.00;21.50;;;;;15.81;60.90;101332.06;5073032;28;45788;-81
2023/05/31 03:01:21;;;;;;;;;26.50;21.25;;;;;15.70;61.18;101325.00;5061273;28;46213;-81
2023/05/31 03:03:47;;;;;;;;;17.75;17.50;;;;;15.67;61.26;101327.03;5073266;28;46555;-80
2023/05/31 03:06:16;;;;;;;;;19.50;17.25;;;;;15.64;61.36;101327.31;5072829;28;45801;-80
2023/05/31 03:08:42;;;;;;;;;20.25;17.25;;;;;15.61;61.23;101330.16;5072956;27;46030;-80
2023/05/31 03:11:07;;;;;;;;;22.25;19.50;;;;;15.56;61.68;101317.34;5073121;28;46496;-80
2023/05/31 03:16:55;;;;;;;;;22.75;20.50;;;;;15.52;61.78;101302.72;5072639;28;45903;-80
2023/05/31 03:19:20;;;;;;;;;20.25;18.00;;;;;15.48;61.77;101306.53;5073737;27;45539;-80
2023/05/31 03:21:46;;;;;;;;;23.00;21.00;;;;;15.45;62.08;101296.19;5073207;28;46202;-80
2023/05/31 03:24:11;;;;;;;;;19.50;19.25;;;;;15.44;62.30;101315.63;5072819;27;45623;-80
2023/05/31 03:26:37;;;;;;;;;18.75;16.75;;;;;15.40;61.49;101309.78;5072075;28;45595;-80
2023/05/31 03:29:02;;;;;;;;;22.25;20.25;;;;;15.34;61.90;101309.41;5071772;28;46022;-80
2023/05/31 03:31:31;;;;;;;;;21.00;18.25;;;;;15.32;62.27;101299.00;5071855;27;45569;-79
2023/05/31 03:33:56;;;;;;;;;18.75;17.25;;;;;15.30;62.35;101310.63;5071313;28;46960;-79
2023/05/31 03:36:22;;;;;;;;;24.75;21.75;;;;;15.30;62.09;101318.56;5070798;28;45664;-79
2023/05/31 03:38:47;;;;;;;;;21.50;18.75;;;;;15.28;62.18;101326.59;5073464;27;45947;-79
2023/05/31 03:41:12;;;;;;;;;22.50;19.50;;;;;15.27;62.70;101318.81;5072801;28;45737;-79
2023/05/31 03:47:00;;;;;;;;;26.50;21.75;;;;;15.24;62.59;101311.97;5071846;28;45509;-80
2023/05/31 03:49:25;;;;;;;;;17.50;14.50;;;;;15.24;63.23;101324.31;5073268;27;45773;-79
2023/05/31 03:51:51;;;;;;;;;18.75;15.75;;;;;15.20;62.55;101317.59;5073068;28;46742;-80
2023/05/31 03:54:17;;;;;;;;;21.25;19.25;;;;;15.18;62.22;101314.25;5072670;27;45696;-79
2023/05/31 03:56:42;;;;;;;;;20.25;19.25;;;;;15.18;62.51;101315.09;5072247;27;45682;-79
2023/05/31 04:02:29;;;;;;;;;24.25;21.25;;;;;15.18;62.50;101320.38;5060821;28;45967;-80
2023/05/31 04:04:55;;;;;;;;;21.25;19.25;;;;;15.17;62.63;101323.97;5072829;28;45688;-79
2023/05/31 04:07:20;;;;;;;;;21.00;19.75;;;;;15.15;62.60;101317.13;5072087;28;46078;-79
2023/05/31 04:09:45;;;;;;;;;22.00;19.50;;;;;15.15;62.49;101322.41;5072906;28;45754;-80
2023/05/31 04:12:11;;;;;;;;;22.00;18.75;;;;;15.16;62.39;101329.38;5072213;27;45629;-80
2023/05/31 04:14:36;;;;;;;;;24.00;21.25;;;;;15.17;62.84;101341.63;5072253;27;45659;-79
2023/05/31 04:17:01;;;;;;;;;21.75;20.00;;;;;15.16;62.82;101330.22;5072078;27;45638;-79
2023/05/31 04:19:27;;;;;;;;;21.00;20.00;;;;;15.13;62.50;101333.94;5072279;27;45739;-80
2023/05/31 04:21:52;;;;;;;;;20.00;19.75;;;;;15.11;62.71;101330.56;5071897;28;45863;-80
2023/05/31 04:24:17;;;;;;;;;15.50;14.00;;;;;15.10;62.75;101333.34;5072450;28;46317;-81
2023/05/31 04:26:43;;;;;;;;;20.50;19.75;;;;;15.09;62.93;101332.50;5069952;28;45719;-80
2023/05/31 04:32:34;;;;;;;;;20.75;18.50;;;;;15.09;62.90;101342.22;5072232;28;45939;-81
2023/05/31 04:35:03;;;;;;;;;23.00;18.00;;;;;15.09;62.66;101337.78;5072138;27;46072;-80
2023/05/31 04:37:32;;;;;;;;;22.50;19.25;;;;;15.06;62.78;101335.34;5087159;27;45865;-79
2023/05/31 04:39:59;;;;;;;;;21.25;18.25;;;;;15.05;63.21;101338.97;5070616;28;45851;-80
2023/05/31 04:42:26;;;;;;;;;21.00;18.75;;;;;15.05;62.94;101335.50;5074361;28;45745;-81
2023/05/31 04:45:01;;;;;;;;;22.00;20.00;;;;;15.04;63.56;101337.28;5073837;28;47393;-80
2023/05/31 04:47:35;;;;;;;;;28.75;23.75;;;;;15.05;63.45;101328.44;5075499;28;45860;-79
2023/05/31 04:50:00;;;;;;;;;22.50;21.00;;;;;15.05;63.21;101332.84;5074511;28;45626;-80
2023/05/31 04:52:33;;;;;;;;;20.25;17.75;;;;;15.07;62.59;101331.75;5075745;28;46335;-80
2023/05/31 04:55:00;;;;;;;;;23.25;20.75;;;;;15.10;62.98;101334.19;5069506;28;47283;-79
2023/05/31 04:57:26;;;;;;;;;21.75;19.75;;;;;15.10;62.70;101336.81;5074838;27;45721;-78
2023/05/31 04:59:52;;;;;;;;;28.75;26.25;;;;;15.11;62.86;101340.31;5075639;27;45689;-79
2023/05/31 05:02:18;;;;;;;;;22.00;20.50;;;;;15.12;62.78;101332.25;5091018;27;46223;-78
2023/05/31 05:04:44;;;;;;;;;24.75;22.00;;;;;15.12;62.93;101334.88;5075361;27;46083;-80
2023/05/31 05:07:09;;;;;;;;;22.75;19.00;;;;;15.13;63.07;101344.50;5074989;28;45650;-79
2023/05/31 05:09:35;;;;;;;;;21.75;21.25;;;;;15.12;63.42;101340.16;5075931;27;46182;-79
2023/05/31 05:12:02;;;;;;;;;20.25;18.50;;;;;15.08;63.13;101330.81;5075269;27;46287;-80
2023/05/31 05:17:50;;;;;;;;;20.25;19.25;;;;;15.08;63.18;101335.25;5073018;28;45566;-77
2023/05/31 05:20:15;;;;;;;;;20.75;19.00;;;;;15.07;63.36;101338.84;5072845;28;46034;-77
2023/05/31 05:22:42;;;;;;;;;20.25;18.75;;;;;15.06;63.38;101334.53;5077426;28;45996;-79
2023/05/31 05:25:08;;;;;;;;;27.25;19.75;;;;;15.02;63.58;101327.81;5074429;27;46134;-78
2023/05/31 05:27:33;;;;;;;;;23.75;20.50;;;;;15.05;63.51;101336.34;5074478;28;45765;-77
2023/05/31 05:33:20;;;;;;;;;24.50;22.00;;;;;15.09;63.33;101344.84;5074471;28;45832;-79
2023/05/31 05:35:46;;;;;;;;;23.75;21.25;;;;;15.08;63.32;101333.44;5074267;28;45655;-78
2023/05/31 05:38:11;;;;;;;;;19.25;17.25;;;;;15.09;62.84;101337.78;5074404;28;45620;-79
2023/05/31 05:40:37;;;;;;;;;17.50;15.75;;;;;15.13;63.27;101347.13;5075206;27;45602;-78
2023/05/31 05:43:02;;;;;;;;;17.75;16.00;;;;;15.17;62.85;101346.91;5074405;28;46368;-78
2023/05/31 05:45:27;;;;;;;;;25.00;22.00;;;;;15.18;63.42;101338.84;5074452;27;46243;-80
2023/05/31 05:47:55;;;;;;;;;25.00;20.25;;;;;15.19;63.30;101340.53;5074380;28;45736;-78
2023/05/31 05:50:21;;;;;;;;;19.25;18.50;;;;;15.24;63.06;101351.56;5077538;28;45862;-83
2023/05/31 05:52:46;;;;;;;;;21.50;19.25;;;;;15.23;63.01;101341.13;5073718;27;45846;-84
2023/05/31 05:55:12;;;;;;;;;26.25;22.75;;;;;15.18;63.21;101338.84;5073292;28;46093;-84
2023/05/31 05:57:37;;;;;;;;;21.00;20.25;;;;;15.20;62.89;101350.13;5074456;27;45851;-80
2023/05/31 06:03:24;;;;;;;;;26.25;22.25;;;;;15.25;63.06;101360.31;5064777;28;45734;-79
2023/05/31 06:05:50;;;;;;;;;20.00;19.00;;;;;15.25;62.74;101347.97;5074319;27;46653;-79
2023/05/31 06:08:16;;;;;;;;;18.00;16.50;;;;;15.23;62.74;101339.31;5074504;27;45616;-78
2023/05/31 06:10:41;;;;;;;;;24.25;20.25;;;;;15.27;63.28;101332.00;5074845;27;45846;-79
2023/05/31 06:13:07;;;;;;;;;22.75;21.75;;;;;15.28;63.01;101329.22;5074600;27;45536;-80
2023/05/31 06:15:33;;;;;;;;;16.00;14.00;;;;;15.32;62.82;101345.69;5076198;28;46147;-81
2023/05/31 06:17:58;;;;;;;;;19.75;17.25;;;;;15.35;62.61;101332.22;5076476;27;45658;-79
2023/05/31 06:20:23;;;;;;;;;21.75;19.00;;;;;15.38;62.53;101345.22;5075419;27;45509;-79
2023/05/31 06:22:52;;;;;;;;;17.50;16.25;;;;;15.43;62.72;101337.75;5075174;27;46472;-80
2023/05/31 06:25:19;;;;;;;;;18.00;15.75;;;;;15.44;62.46;101329.69;5075206;28;45651;-80
2023/05/31 06:27:45;;;;;;;;;19.75;18.00;;;;;15.50;62.18;101338.91;5075138;27;45743;-81
2023/05/31 06:33:33;;;;;;;;;19.50;19.50;;;;;15.63;62.17;101342.31;5075229;28;45941;-80
2023/05/31 06:35:59;;;;;;;;;16.00;14.75;;;;;15.66;61.76;101330.63;5074597;27;46090;-81
2023/05/31 06:38:24;;;;;;;;;16.25;15.75;;;;;15.74;61.80;101330.88;5077879;28;45642;-77
2023/05/31 06:40:49;;;;;;;;;19.00;16.75;;;;;15.75;61.36;101333.41;5077907;28;45663;-81
2023/05/31 06:43:15;;;;;;;;;20.50;15.50;;;;;15.85;61.63;101333.47;5078056;27;46340;-80
2023/05/31 06:45:41;;;;;;;;;16.75;15.50;;;;;15.89;61.01;101327.81;5072820;28;45720;-78
2023/05/31 06:48:08;;;;;;;;;17.25;15.50;;;;;15.94;60.82;101332.72;5072851;28;45987;-79
2023/05/31 06:50:34;;;;;;;;;15.50;15.25;;;;;16.00;60.78;101329.56;5075098;27;45690;-80
2023/05/31 06:53:00;;;;;;;;;15.50;14.50;;;;;16.03;60.33;101323.22;5075062;27;46356;-80
2023/05/31 06:55:25;;;;;;;;;18.50;15.00;;;;;16.07;60.29;101322.00;5074095;27;45746;-81
2023/05/31 06:57:50;;;;;;;;;21.00;16.00;;;;;16.12;60.22;101328.56;5074392;27;45657;-79
2023/05/31 07:03:38;;;;;;;;;16.00;13.50;;;;;16.22;60.02;101318.91;5070799;28;45647;-80
2023/05/31 07:06:04;;;;;;;;;12.25;10.75;;;;;16.27;59.81;101319.38;5072256;27;46465;-78
2023/05/31 07:08:29;;;;;;;;;21.50;15.75;;;;;16.30;59.21;101324.38;5072320;28;45986;-79
2023/05/31 07:10:55;;;;;;;;;24.00;19.00;;;;;16.32;59.38;101324.25;5073850;27;45641;-78
2023/05/31 07:13:22;;;;;;;;;15.25;14.50;;;;;16.38;59.38;101323.75;5073743;28;45873;-80
2023/05/31 07:19:09;;;;;;;;;16.50;14.25;;;;;16.49;58.66;101318.41;5073324;28;45584;-80
2023/05/31 07:21:36;;;;;;;;;18.25;17.00;;;;;16.53;58.57;101313.69;5073975;27;45696;-80
2023/05/31 07:24:01;;;;;;;;;17.25;14.00;;;;;16.57;58.58;101317.75;5071855;27;45738;-79
2023/05/31 07:26:27;;;;;;;;;18.25;16.00;;;;;16.59;58.51;101310.53;5073485;27;46111;-78
2023/05/31 07:28:52;;;;;;;;;11.75;10.50;;;;;16.62;58.37;101312.94;5074291;28;45580;-79
2023/05/31 07:31:18;;;;;;;;;16.00;15.00;;;;;16.66;58.02;101315.19;5075326;27;45716;-78
2023/05/31 07:33:44;;;;;;;;;17.00;15.00;;;;;16.70;58.14;101307.81;5072703;28;48332;-79
2023/05/31 07:36:09;;;;;;;;;15.75;13.00;;;;;16.74;57.74;101314.53;5074303;27;46093;-80
2023/05/31 07:38:35;;;;;;;;;16.25;15.50;;;;;16.79;57.79;101312.31;5075365;27;45634;-80
2023/05/31 07:41:03;;;;;;;;;14.75;13.75;;;;;16.84;57.73;101304.84;5076424;28;45548;-78
2023/05/31 07:43:29;;;;;;;;;17.50;14.25;;;;;16.88;57.37;101308.06;5074546;28;45654;-79
2023/05/31 07:49:16;;;;;;;;;16.25;13.75;;;;;16.93;57.43;101306.69;5075151;28;45849;-81
2023/05/31 07:51:41;;;;;;;;;16.00;14.25;;;;;16.98;57.56;101312.44;5074435;27;45568;-80
2023/05/31 07:54:06;;;;;;;;;17.00;16.00;;;;;17.01;57.63;101303.38;5074838;27;46586;-79
2023/05/31 07:56:32;;;;;;;;;16.00;15.00;;;;;17.07;57.51;101300.19;5075359;28;46391;-80
2023/05/31 07:58:57;;;;;;;;;14.75;13.00;;;;;17.11;57.35;101306.91;5075454;28;45512;-80
2023/05/31 08:01:22;;;;;;;;;17.00;15.00;;;;;17.18;57.43;101300.09;5075334;28;45684;-79
2023/05/31 08:03:50;;;;;;;;;17.25;14.25;;;;;17.23;57.25;101307.63;5074553;28;46197;-79
2023/05/31 08:06:17;;;;;;;;;15.00;14.00;;;;;17.27;56.81;101298.47;5075511;27;46038;-81
2023/05/31 08:08:43;;;;;;;;;11.00;10.50;;;;;17.31;56.54;101284.81;5073420;28;45853;-78
2023/05/31 08:11:12;;;;;;;;;15.00;14.00;;;;;17.38;56.69;101293.06;5075537;27;45583;-82
2023/05/31 08:13:44;;;;;;;;;13.00;12.00;;;;;17.43;56.17;101296.13;5075048;27;46735;-78
2023/05/31 08:19:31;;;;;;;;;15.75;11.75;;;;;17.56;56.03;101302.00;5078505;28;45784;-79
2023/05/31 08:21:56;;;;;;;;;13.75;12.75;;;;;17.60;56.02;101288.38;5079856;27;45597;-79
2023/05/31 08:24:22;;;;;;;;;14.75;12.75;;;;;17.69;55.80;101291.19;5079881;27;46148;-80
2023/05/31 08:26:48;;;;;;;;;15.25;9.75;;;;;17.74;55.02;101281.00;5078945;27;45715;-79
2023/05/31 08:29:13;;;;;;;;;10.50;10.00;;;;;17.79;55.18;101276.97;5076281;28;45624;-80
2023/05/31 08:31:38;;;;;;;;;13.00;9.75;;;;;17.85;54.72;101286.16;5077085;28;45822;-81
2023/05/31 08:34:04;;;;;;;;;12.25;12.00;;;;;17.90;54.59;101281.28;5077449;27;45617;-80
2023/05/31 08:36:29;;;;;;;;;10.75;10.25;;;;;17.95;54.99;101271.94;5075530;28;48419;-80
2023/05/31 08:38:55;;;;;;;;;9.75;9.25;;;;;18.02;54.97;101266.91;5092829;27;45608;-80
2023/05/31 08:41:22;;;;;;;;;12.75;11.00;;;;;18.11;54.30;101271.34;5076830;28;45630;-79
2023/05/31 08:43:48;;;;;;;;;11.00;9.50;;;;;18.17;54.00;101272.59;5076455;27;45575;-79
2023/05/31 08:49:36;;;;;;;;;10.50;10.00;;;;;18.31;53.86;101273.00;5077106;28;45708;-80
2023/05/31 08:52:01;;;;;;;;;10.00;9.75;;;;;18.38;52.78;101267.97;5077130;27;45582;-79
2023/05/31 08:54:28;;;;;;;;;11.00;9.00;;;;;18.44;52.95;101262.09;5077205;28;45773;-78
2023/05/31 08:56:53;;;;;;;;;13.00;11.00;;;;;18.48;52.84;101262.63;5078876;28;45643;-78
2023/05/31 08:59:20;;;;;;;;;12.50;10.75;;;;;18.54;52.69;101264.72;5081438;27;45588;-79
2023/05/31 09:05:10;;;;;;;;;10.25;9.00;;;;;18.63;52.37;101253.25;5068688;28;45647;-80
2023/05/31 09:07:37;;;;;;;;;12.00;10.50;;;;;18.71;52.12;101251.56;5078204;28;45684;-81
2023/05/31 09:10:05;;;;;;;;;10.75;8.75;;;;;18.80;51.91;101248.00;5077389;27;45658;-81
2023/05/31 09:12:31;;;;;;;;;11.25;11.00;;;;;18.88;52.29;101243.81;5076656;27;45473;-81
2023/05/31 09:14:57;;;;;;;;;11.00;10.25;;;;;18.93;51.98;101242.38;5074313;28;46920;-80
2023/05/31 09:17:22;;;;;;;;;11.50;10.25;;;;;19.02;51.77;101243.28;5076515;27;46094;-80
2023/05/31 09:19:53;;;;;;;;;9.50;8.00;;;;;19.11;51.61;101253.06;5076927;27;45532;-79
2023/05/31 09:22:22;;;;;;;;;11.50;10.00;;;;;19.17;50.79;101245.31;5077159;27;45766;-79
2023/05/31 09:25:00;;;;;;;;;11.00;7.75;;;;;19.19;50.77;101248.66;5076622;27;46599;-82
2023/05/31 09:27:33;;;;;;;;;4.50;2.25;;;;;19.26;50.63;101236.47;5075701;27;46000;-80
2023/05/31 09:30:04;;;;;;;;;8.25;7.75;;;;;19.30;50.69;101239.66;5075990;27;45458;-80
2023/05/31 09:32:30;;;;;;;;;8.50;8.25;;;;;19.40;50.98;101227.13;5076551;28;45726;-81
2023/05/31 09:35:20;;;;;;;;;8.25;8.00;;;;;19.48;50.24;101232.56;5076330;27;46173;-79
2023/05/31 09:37:49;;;;;;;;;10.00;10.00;;;;;19.55;50.62;101222.97;5073954;28;47631;-80
2023/05/31 09:40:22;;;;;;;;;10.75;9.75;;;;;19.62;50.19;101231.19;5076047;28;45638;-80
2023/05/31 09:42:48;;;;;;;;;10.00;8.75;;;;;19.68;50.25;101225.25;5076172;27;45782;-79
2023/05/31 09:45:15;;;;;;;;;13.00;9.75;;;;;19.72;50.19;101220.47;5075641;27;46545;-79
2023/05/31 09:47:40;;;;;;;;;9.00;9.00;;;;;19.79;49.91;101226.84;5090717;27;47626;-80
2023/05/31 09:50:19;;;;;;;;;6.75;6.75;;;;;19.84;49.23;101227.22;5075689;28;45570;-78
2023/05/31 09:52:47;;;;;;;;;10.00;9.75;;;;;19.89;49.47;101224.94;5075971;27;45759;-79
2023/05/31 09:55:15;;;;;;;;;13.00;10.50;;;;;19.94;49.68;101212.00;5075411;27;45668;-79
2023/05/31 09:57:43;;;;;;;;;12.75;11.50;;;;;19.99;49.70;101218.53;5075197;27;46134;-78
2023/05/31 10:00:20;;;;;;;;;11.00;10.50;;;;;20.05;49.55;101209.94;5075389;27;45786;-79
2023/05/31 10:02:53;;;;;;;;;12.25;11.00;;;;;20.10;49.34;101212.13;5075724;27;45607;-79
2023/05/31 10:05:20;;;;;;;;;9.50;9.00;;;;;20.16;48.97;101221.31;5074859;27;45875;-78
2023/05/31 10:07:55;;;;;;;;;11.00;10.25;;;;;20.21;49.08;101209.22;5090712;27;48095;-78
2023/05/31 10:10:21;;;;;;;;;10.75;9.00;;;;;20.27;48.90;101208.59;5075080;27;45637;-80
2023/05/31 10:12:50;;;;;;;;;11.50;9.50;;;;;20.37;48.52;101208.50;5074116;28;45739;-79
2023/05/31 10:15:22;;;;;;;;;10.00;9.00;;;;;20.41;47.69;101205.38;5074942;28;46734;-79
2023/05/31 10:17:57;;;;;;;;;9.00;9.00;;;;;20.50;48.09;101203.59;5075568;27;46099;-80
2023/05/31 10:20:26;;;;;;;;;10.50;8.75;;;;;20.55;47.90;101187.97;5073164;28;45705;-79
2023/05/31 10:22:57;;;;;;;;;11.50;9.50;;;;;20.59;47.45;101197.31;5075434;27;45705;-80
2023/05/31 10:25:22;;;;;;;;;9.00;8.75;;;;;20.65;47.62;101195.84;5075234;27;45832;-79
2023/05/31 10:27:53;;;;;;;;;9.25;7.25;;;;;20.71;47.79;101190.72;5075308;28;46152;-79
2023/05/31 10:30:25;;;;;;;;;10.50;9.50;;;;;20.79;47.09;101188.06;5090977;27;45728;-78
2023/05/31 10:36:12;;;;;;;;;9.00;8.50;;;;;20.97;46.94;101182.63;5074445;28;45584;-79
2023/05/31 10:38:49;;;;;;;;;9.00;7.75;;;;;21.00;46.60;101179.63;5074858;27;45616;-80
2023/05/31 10:41:20;;;;;;;;;8.00;8.00;;;;;21.08;46.09;101184.16;5075018;27;45655;-82
2023/05/31 10:44:22;;;;;;;;;7.75;7.50;;;;;21.16;45.80;101165.56;5074608;27;45627;-83
2023/05/31 10:46:56;;;;;;;;;8.25;7.25;;;;;21.22;45.67;101188.88;5064686;27;46404;-82
2023/05/31 10:49:23;;;;;;;;;8.50;8.50;;;;;21.28;45.17;101178.41;5074841;27;45836;-81
2023/05/31 10:51:49;;;;;;;;;7.75;7.25;;;;;21.33;45.06;101172.56;5074854;27;45466;-85
2023/05/31 10:54:19;;;;;;;;;10.00;9.00;;;;;21.39;45.34;101163.91;5074222;28;45774;-84
2023/05/31 10:56:57;;;;;;;;;10.50;8.75;;;;;21.47;44.86;101160.44;5074090;27;45564;-81
2023/05/31 10:59:23;;;;;;;;;8.25;8.00;;;;;21.51;44.53;101172.44;5089473;27;47953;-81
2023/05/31 11:01:50;;;;;;;;;8.75;7.50;;;;;21.58;44.53;101166.28;5074423;27;45639;-81
2023/05/31 11:04:24;;;;;;;;;9.00;8.00;;;;;21.65;44.43;101169.94;5073847;27;45636;-81
2023/05/31 11:07:14;;;;;;;;;6.25;6.00;;;;;21.68;44.37;101152.78;5074487;27;46584;-84
2023/05/31 11:09:42;;;;;;;;;10.75;9.25;;;;;21.75;44.33;101154.56;5072587;28;45979;-83
2023/05/31 11:12:11;;;;;;;;;7.00;6.75;;;;;21.85;44.16;101169.59;5072285;28;45698;-81
2023/05/31 11:14:37;;;;;;;;;7.25;6.75;;;;;21.88;44.42;101151.41;5073906;28;45695;-82
2023/05/31 11:17:04;;;;;;;;;9.50;8.50;;;;;21.98;44.02;101154.75;5079889;28;45601;-82
2023/05/31 11:19:31;;;;;;;;;8.00;7.00;;;;;22.06;44.00;101161.94;5082269;28;46034;-82
2023/05/31 11:22:16;;;;;;;;;10.50;8.25;;;;;22.14;43.26;101151.22;5082933;28;45714;-81
2023/05/31 11:24:42;;;;;;;;;10.75;9.50;;;;;22.19;43.75;101140.84;5076830;28;46156;-82
2023/05/31 11:27:11;;;;;;;;;8.75;8.75;;;;;22.24;43.34;101143.03;5074699;28;46943;-80
2023/05/31 11:29:52;;;;;;;;;8.75;8.25;;;;;22.33;43.07;101152.69;5072538;28;45950;-83
2023/05/31 11:32:19;;;;;;;;;10.00;9.00;;;;;22.37;42.56;101146.81;5072540;28;45787;-81
2023/05/31 11:34:56;;;;;;;;;9.75;8.75;;;;;22.41;42.97;101148.13;5072666;28;45734;-81
2023/05/31 11:37:36;;;;;;;;;6.25;5.75;;;;;22.46;43.18;101143.09;5072280;28;46585;-80
2023/05/31 11:40:06;;;;;;;;;8.75;8.75;;;;;22.52;42.43;101147.75;5072276;28;46027;-80
2023/05/31 11:42:32;;;;;;;;;8.00;8.00;;;;;22.57;42.94;101141.88;5071906;28;45722;-81
2023/05/31 11:45:03;;;;;;;;;9.00;9.00;;;;;22.62;42.62;101141.38;5071859;28;45635;-80
2023/05/31 11:47:36;;;;;;;;;6.75;6.75;;;;;22.63;42.29;101135.84;5073319;28;46450;-82
2023/05/31 11:50:01;;;;;;;;;9.75;9.00;;;;;22.69;42.72;101145.00;5089594;27;48434;-80
2023/05/31 11:52:28;;;;;;;;;8.00;7.25;;;;;22.73;42.65;101133.00;5073423;27;45583;-82
2023/05/31 11:54:54;;;;;;;;;8.75;8.75;;;;;22.81;41.96;101140.97;5074102;27;45676;-82
2023/05/31 11:57:20;;;;;;;;;8.50;7.00;;;;;22.84;42.29;101132.59;5073834;28;46723;-80
2023/05/31 11:59:46;;;;;;;;;13.75;11.50;;;;;22.91;42.19;101128.22;5074139;28;46277;-81
2023/05/31 12:02:12;;;;;;;;;10.00;9.00;;;;;22.94;41.82;101127.88;5071874;28;45660;-83
2023/05/31 12:04:40;;;;;;;;;9.00;9.00;;;;;23.02;42.12;101141.19;5073995;27;45774;-81
2023/05/31 12:07:11;;;;;;;;;8.75;8.00;;;;;23.06;41.92;101139.81;5073907;28;46628;-81
2023/05/31 12:09:36;;;;;;;;;11.00;9.50;;;;;23.07;41.18;101138.81;5073714;28;46046;-83
2023/05/31 12:12:05;;;;;;;;;8.00;7.25;;;;;23.10;41.20;101125.09;5071998;28;45660;-83
2023/05/31 12:14:31;;;;;;;;;9.75;9.00;;;;;23.14;41.56;101122.91;5072391;28;45648;-81
2023/05/31 12:17:01;;;;;;;;;14.50;9.00;;;;;23.18;41.43;101125.03;5073299;27;45885;-81
2023/05/31 12:19:27;;;;;;;;;10.00;8.75;;;;;23.22;41.55;101121.00;5073542;27;45922;-80
2023/05/31 12:21:52;;;;;;;;;8.00;8.00;;;;;23.30;41.28;101123.63;5074139;27;45586;-78